sensor_id;sensor_type;location;lat;lon;timestamp;P1;durP1;ratioP1;P2;durP2;ratioP2
17826;SDS011;9038;48.208;16.308;2023-12-04T00:01:35;11.13;;;8.00;;
17826;SDS011;9038;48.208;16.308;2023-12-04T00:03:37;12.20;;;7.87;;
17826;SDS011;9038;48.208;16.308;2023-12-04T00:05:37;12.03;;;7.60;;
17826;SDS011;9038;48.208;16.308;2023-12-04T00:07:39;10.83;;;7.67;;
17826;SDS011;9038;48.208;16.308;2023-12-04T00:09:41;11.90;;;8.03;;
17826;SDS011;9038;48.208;16.308;2023-12-04T00:11:43;11.67;;;8.07;;
17826;SDS011;9038;48.208;16.308;2023-12-04T00:13:45;11.87;;;8.50;;
17826;SDS011;9038;48.208;16.308;2023-12-04T00:15:48;12.07;;;8.07;;
17826;SDS011;9038;48.208;16.308;2023-12-04T00:17:50;10.40;;;7.70;;
17826;SDS011;9038;48.208;16.308;2023-12-04T00:19:51;12.53;;;8.67;;
17826;SDS011;9038;48.208;16.308;2023-12-04T00:21:53;14.50;;;9.00;;
17826;SDS011;9038;48.208;16.308;2023-12-04T00:23:55;14.93;;;9.63;;
17826;SDS011;9038;48.208;16.308;2023-12-04T00:25:56;13.23;;;9.03;;
17826;SDS011;9038;48.208;16.308;2023-12-04T00:27:57;13.80;;;9.57;;
17826;SDS011;9038;48.208;16.308;2023-12-04T00:29:59;10.90;;;7.80;;
17826;SDS011;9038;48.208;16.308;2023-12-04T00:32:05;12.87;;;8.60;;
17826;SDS011;9038;48.208;16.308;2023-12-04T00:34:07;10.73;;;7.63;;
17826;SDS011;9038;48.208;16.308;2023-12-04T00:36:09;12.17;;;7.97;;
17826;SDS011;9038;48.208;16.308;2023-12-04T00:38:11;13.07;;;7.90;;
17826;SDS011;9038;48.208;16.308;2023-12-04T00:40:13;12.03;;;8.20;;
17826;SDS011;9038;48.208;16.308;2023-12-04T00:42:15;12.23;;;8.37;;
17826;SDS011;9038;48.208;16.308;2023-12-04T00:44:17;12.87;;;8.80;;
17826;SDS011;9038;48.208;16.308;2023-12-04T00:46:19;12.23;;;8.57;;
17826;SDS011;9038;48.208;16.308;2023-12-04T00:48:22;12.93;;;9.50;;
17826;SDS011;9038;48.208;16.308;2023-12-04T00:50:24;12.67;;;8.50;;
17826;SDS011;9038;48.208;16.308;2023-12-04T00:52:26;11.83;;;8.10;;
17826;SDS011;9038;48.208;16.308;2023-12-04T00:54:27;12.87;;;8.53;;
17826;SDS011;9038;48.208;16.308;2023-12-04T00:56:29;15.73;;;8.70;;
17826;SDS011;9038;48.208;16.308;2023-12-04T00:58:31;12.20;;;8.90;;
17826;SDS011;9038;48.208;16.308;2023-12-04T01:00:33;15.60;;;9.40;;
17826;SDS011;9038;48.208;16.308;2023-12-04T01:02:35;14.77;;;9.00;;
17826;SDS011;9038;48.208;16.308;2023-12-04T01:04:38;16.43;;;9.00;;
17826;SDS011;9038;48.208;16.308;2023-12-04T01:06:41;12.10;;;8.60;;
17826;SDS011;9038;48.208;16.308;2023-12-04T01:08:43;12.87;;;8.77;;
17826;SDS011;9038;48.208;16.308;2023-12-04T01:10:44;14.27;;;8.40;;
17826;SDS011;9038;48.208;16.308;2023-12-04T01:12:45;12.80;;;8.90;;
17826;SDS011;9038;48.208;16.308;2023-12-04T01:14:46;14.70;;;8.47;;
17826;SDS011;9038;48.208;16.308;2023-12-04T01:16:48;16.13;;;9.13;;
17826;SDS011;9038;48.208;16.308;2023-12-04T01:18:50;17.27;;;9.97;;
17826;SDS011;9038;48.208;16.308;2023-12-04T01:20:53;26.80;;;12.17;;
17826;SDS011;9038;48.208;16.308;2023-12-04T01:22:54;33.83;;;12.03;;
17826;SDS011;9038;48.208;16.308;2023-12-04T01:24:56;35.67;;;13.50;;
17826;SDS011;9038;48.208;16.308;2023-12-04T01:26:58;34.23;;;14.73;;
17826;SDS011;9038;48.208;16.308;2023-12-04T01:29:00;35.07;;;13.70;;
17826;SDS011;9038;48.208;16.308;2023-12-04T01:31:02;33.23;;;14.20;;
17826;SDS011;9038;48.208;16.308;2023-12-04T01:33:04;26.30;;;12.00;;
17826;SDS011;9038;48.208;16.308;2023-12-04T01:35:05;20.93;;;10.90;;
17826;SDS011;9038;48.208;16.308;2023-12-04T01:37:09;20.37;;;10.50;;
17826;SDS011;9038;48.208;16.308;2023-12-04T01:39:11;30.27;;;13.40;;
17826;SDS011;9038;48.208;16.308;2023-12-04T01:41:13;25.30;;;12.70;;
17826;SDS011;9038;48.208;16.308;2023-12-04T01:43:15;26.00;;;11.73;;
17826;SDS011;9038;48.208;16.308;2023-12-04T01:45:17;27.43;;;12.50;;
17826;SDS011;9038;48.208;16.308;2023-12-04T01:47:19;23.97;;;12.00;;
17826;SDS011;9038;48.208;16.308;2023-12-04T01:49:21;25.23;;;12.10;;
17826;SDS011;9038;48.208;16.308;2023-12-04T01:51:23;18.77;;;10.53;;
17826;SDS011;9038;48.208;16.308;2023-12-04T01:53:26;22.03;;;11.47;;
17826;SDS011;9038;48.208;16.308;2023-12-04T01:55:28;17.07;;;10.23;;
17826;SDS011;9038;48.208;16.308;2023-12-04T01:57:30;15.70;;;9.77;;
17826;SDS011;9038;48.208;16.308;2023-12-04T01:59:31;13.93;;;9.30;;
17826;SDS011;9038;48.208;16.308;2023-12-04T02:01:34;16.70;;;9.97;;
17826;SDS011;9038;48.208;16.308;2023-12-04T02:03:37;18.23;;;9.93;;
17826;SDS011;9038;48.208;16.308;2023-12-04T02:05:39;14.17;;;8.80;;
17826;SDS011;9038;48.208;16.308;2023-12-04T02:07:40;14.43;;;8.40;;
17826;SDS011;9038;48.208;16.308;2023-12-04T02:09:44;12.77;;;8.60;;
17826;SDS011;9038;48.208;16.308;2023-12-04T02:11:46;15.80;;;9.17;;
17826;SDS011;9038;48.208;16.308;2023-12-04T02:13:48;12.30;;;8.23;;
17826;SDS011;9038;48.208;16.308;2023-12-04T02:15:52;17.17;;;10.00;;
17826;SDS011;9038;48.208;16.308;2023-12-04T02:17:55;16.53;;;10.13;;
17826;SDS011;9038;48.208;16.308;2023-12-04T02:19:57;13.03;;;8.47;;
17826;SDS011;9038;48.208;16.308;2023-12-04T02:21:59;11.20;;;7.73;;
17826;SDS011;9038;48.208;16.308;2023-12-04T02:24:03;10.70;;;7.90;;
17826;SDS011;9038;48.208;16.308;2023-12-04T02:26:10;13.43;;;8.53;;
17826;SDS011;9038;48.208;16.308;2023-12-04T02:28:15;12.27;;;8.37;;
17826;SDS011;9038;48.208;16.308;2023-12-04T02:30:19;12.37;;;8.10;;
17826;SDS011;9038;48.208;16.308;2023-12-04T02:32:24;12.77;;;8.33;;
17826;SDS011;9038;48.208;16.308;2023-12-04T02:34:30;13.10;;;8.10;;
17826;SDS011;9038;48.208;16.308;2023-12-04T02:36:35;10.43;;;7.43;;
17826;SDS011;9038;48.208;16.308;2023-12-04T02:38:38;10.57;;;6.87;;
17826;SDS011;9038;48.208;16.308;2023-12-04T02:40:42;9.70;;;6.70;;
17826;SDS011;9038;48.208;16.308;2023-12-04T02:42:44;10.93;;;7.07;;
17826;SDS011;9038;48.208;16.308;2023-12-04T02:44:45;9.07;;;6.37;;
17826;SDS011;9038;48.208;16.308;2023-12-04T02:46:47;9.70;;;6.53;;
17826;SDS011;9038;48.208;16.308;2023-12-04T02:48:49;11.37;;;7.10;;
17826;SDS011;9038;48.208;16.308;2023-12-04T02:50:51;10.83;;;7.40;;
17826;SDS011;9038;48.208;16.308;2023-12-04T02:52:52;10.27;;;7.07;;
17826;SDS011;9038;48.208;16.308;2023-12-04T02:54:54;9.03;;;7.10;;
17826;SDS011;9038;48.208;16.308;2023-12-04T02:56:58;11.60;;;7.80;;
17826;SDS011;9038;48.208;16.308;2023-12-04T02:59:00;11.33;;;7.83;;
17826;SDS011;9038;48.208;16.308;2023-12-04T03:01:02;11.13;;;7.30;;
17826;SDS011;9038;48.208;16.308;2023-12-04T03:03:04;9.07;;;6.90;;
17826;SDS011;9038;48.208;16.308;2023-12-04T03:05:06;10.73;;;7.30;;
17826;SDS011;9038;48.208;16.308;2023-12-04T03:07:08;11.87;;;7.80;;
17826;SDS011;9038;48.208;16.308;2023-12-04T03:09:08;11.13;;;6.77;;
17826;SDS011;9038;48.208;16.308;2023-12-04T03:11:11;10.97;;;7.47;;
17826;SDS011;9038;48.208;16.308;2023-12-04T03:13:14;9.30;;;6.63;;
17826;SDS011;9038;48.208;16.308;2023-12-04T03:15:16;12.00;;;7.40;;
17826;SDS011;9038;48.208;16.308;2023-12-04T03:17:18;11.93;;;7.27;;
17826;SDS011;9038;48.208;16.308;2023-12-04T03:19:20;9.90;;;6.93;;
17826;SDS011;9038;48.208;16.308;2023-12-04T03:21:22;8.97;;;6.47;;
17826;SDS011;9038;48.208;16.308;2023-12-04T03:23:24;12.70;;;7.00;;
17826;SDS011;9038;48.208;16.308;2023-12-04T03:25:25;9.63;;;6.67;;
17826;SDS011;9038;48.208;16.308;2023-12-04T03:27:27;9.50;;;5.97;;
17826;SDS011;9038;48.208;16.308;2023-12-04T03:29:31;8.07;;;5.77;;
17826;SDS011;9038;48.208;16.308;2023-12-04T03:31:33;9.47;;;6.63;;
17826;SDS011;9038;48.208;16.308;2023-12-04T03:33:36;7.70;;;5.70;;
17826;SDS011;9038;48.208;16.308;2023-12-04T03:35:38;10.23;;;6.80;;
17826;SDS011;9038;48.208;16.308;2023-12-04T03:37:40;10.27;;;6.57;;
17826;SDS011;9038;48.208;16.308;2023-12-04T03:39:42;11.83;;;6.37;;
17826;SDS011;9038;48.208;16.308;2023-12-04T03:41:43;8.77;;;6.33;;
17826;SDS011;9038;48.208;16.308;2023-12-04T03:43:46;9.57;;;6.43;;
17826;SDS011;9038;48.208;16.308;2023-12-04T03:45:49;9.07;;;7.13;;
17826;SDS011;9038;48.208;16.308;2023-12-04T03:47:50;10.53;;;7.17;;
17826;SDS011;9038;48.208;16.308;2023-12-04T03:49:51;9.53;;;6.40;;
17826;SDS011;9038;48.208;16.308;2023-12-04T03:51:52;10.00;;;6.73;;
17826;SDS011;9038;48.208;16.308;2023-12-04T03:53:54;8.90;;;6.53;;
17826;SDS011;9038;48.208;16.308;2023-12-04T03:55:57;10.93;;;6.83;;
17826;SDS011;9038;48.208;16.308;2023-12-04T03:57:59;10.80;;;7.20;;
17826;SDS011;9038;48.208;16.308;2023-12-04T04:00:01;10.57;;;6.70;;
17826;SDS011;9038;48.208;16.308;2023-12-04T04:02:05;9.77;;;7.20;;
17826;SDS011;9038;48.208;16.308;2023-12-04T04:04:07;13.13;;;7.17;;
17826;SDS011;9038;48.208;16.308;2023-12-04T04:06:09;12.20;;;7.63;;
17826;SDS011;9038;48.208;16.308;2023-12-04T04:08:11;10.67;;;7.23;;
17826;SDS011;9038;48.208;16.308;2023-12-04T04:10:13;15.07;;;8.30;;
17826;SDS011;9038;48.208;16.308;2023-12-04T04:12:15;12.33;;;7.93;;
17826;SDS011;9038;48.208;16.308;2023-12-04T04:14:16;11.77;;;7.83;;
17826;SDS011;9038;48.208;16.308;2023-12-04T04:16:17;13.13;;;7.50;;
17826;SDS011;9038;48.208;16.308;2023-12-04T04:18:20;12.23;;;7.67;;
17826;SDS011;9038;48.208;16.308;2023-12-04T04:20:22;12.37;;;8.20;;
17826;SDS011;9038;48.208;16.308;2023-12-04T04:22:24;12.20;;;8.50;;
17826;SDS011;9038;48.208;16.308;2023-12-04T04:24:26;12.57;;;7.37;;
17826;SDS011;9038;48.208;16.308;2023-12-04T04:26:28;12.63;;;8.13;;
17826;SDS011;9038;48.208;16.308;2023-12-04T04:28:29;11.80;;;7.90;;
17826;SDS011;9038;48.208;16.308;2023-12-04T04:30:31;12.70;;;8.23;;
17826;SDS011;9038;48.208;16.308;2023-12-04T04:32:33;11.47;;;9.03;;
17826;SDS011;9038;48.208;16.308;2023-12-04T04:34:36;18.47;;;10.57;;
17826;SDS011;9038;48.208;16.308;2023-12-04T04:36:38;15.73;;;10.30;;
17826;SDS011;9038;48.208;16.308;2023-12-04T04:38:39;16.50;;;10.37;;
17826;SDS011;9038;48.208;16.308;2023-12-04T04:40:41;12.57;;;8.50;;
17826;SDS011;9038;48.208;16.308;2023-12-04T04:42:44;16.30;;;10.13;;
17826;SDS011;9038;48.208;16.308;2023-12-04T04:44:47;14.23;;;9.60;;
17826;SDS011;9038;48.208;16.308;2023-12-04T04:46:48;17.03;;;9.50;;
17826;SDS011;9038;48.208;16.308;2023-12-04T04:48:50;18.77;;;9.87;;
17826;SDS011;9038;48.208;16.308;2023-12-04T04:50:53;23.97;;;10.20;;
17826;SDS011;9038;48.208;16.308;2023-12-04T04:52:55;17.17;;;10.13;;
17826;SDS011;9038;48.208;16.308;2023-12-04T04:54:57;18.30;;;10.23;;
17826;SDS011;9038;48.208;16.308;2023-12-04T04:56:58;13.80;;;9.90;;
17826;SDS011;9038;48.208;16.308;2023-12-04T04:59:00;20.03;;;10.07;;
17826;SDS011;9038;48.208;16.308;2023-12-04T05:01:02;29.53;;;16.80;;
17826;SDS011;9038;48.208;16.308;2023-12-04T05:03:05;19.77;;;11.10;;
17826;SDS011;9038;48.208;16.308;2023-12-04T05:05:06;18.23;;;11.10;;
17826;SDS011;9038;48.208;16.308;2023-12-04T05:07:09;21.33;;;12.70;;
17826;SDS011;9038;48.208;16.308;2023-12-04T05:09:11;21.37;;;13.07;;
17826;SDS011;9038;48.208;16.308;2023-12-04T05:11:14;17.57;;;12.33;;
17826;SDS011;9038;48.208;16.308;2023-12-04T05:13:16;21.63;;;11.97;;
17826;SDS011;9038;48.208;16.308;2023-12-04T05:15:17;21.90;;;11.77;;
17826;SDS011;9038;48.208;16.308;2023-12-04T05:17:19;17.50;;;10.83;;
17826;SDS011;9038;48.208;16.308;2023-12-04T05:19:21;20.63;;;12.13;;
17826;SDS011;9038;48.208;16.308;2023-12-04T05:21:23;19.77;;;11.93;;
17826;SDS011;9038;48.208;16.308;2023-12-04T05:23:26;20.63;;;12.33;;
17826;SDS011;9038;48.208;16.308;2023-12-04T05:25:28;19.37;;;12.60;;
17826;SDS011;9038;48.208;16.308;2023-12-04T05:27:30;19.73;;;12.63;;
17826;SDS011;9038;48.208;16.308;2023-12-04T05:29:32;20.13;;;12.70;;
17826;SDS011;9038;48.208;16.308;2023-12-04T05:31:33;18.13;;;11.93;;
17826;SDS011;9038;48.208;16.308;2023-12-04T05:33:35;20.47;;;13.50;;
17826;SDS011;9038;48.208;16.308;2023-12-04T05:35:37;22.27;;;14.07;;
17826;SDS011;9038;48.208;16.308;2023-12-04T05:37:38;19.70;;;12.40;;
17826;SDS011;9038;48.208;16.308;2023-12-04T05:39:42;22.07;;;13.37;;
17826;SDS011;9038;48.208;16.308;2023-12-04T05:41:43;21.53;;;13.30;;
17826;SDS011;9038;48.208;16.308;2023-12-04T05:43:44;23.53;;;14.07;;
17826;SDS011;9038;48.208;16.308;2023-12-04T05:45:46;23.50;;;13.97;;
17826;SDS011;9038;48.208;16.308;2023-12-04T05:47:48;23.47;;;14.07;;
17826;SDS011;9038;48.208;16.308;2023-12-04T05:49:50;26.97;;;15.47;;
17826;SDS011;9038;48.208;16.308;2023-12-04T05:51:52;28.43;;;16.07;;
17826;SDS011;9038;48.208;16.308;2023-12-04T05:53:54;26.10;;;15.20;;
17826;SDS011;9038;48.208;16.308;2023-12-04T05:55:57;23.03;;;14.40;;
17826;SDS011;9038;48.208;16.308;2023-12-04T05:57:59;24.33;;;14.50;;
17826;SDS011;9038;48.208;16.308;2023-12-04T06:00:02;24.20;;;14.10;;
17826;SDS011;9038;48.208;16.308;2023-12-04T06:02:05;22.63;;;14.10;;
17826;SDS011;9038;48.208;16.308;2023-12-04T06:04:07;28.90;;;15.63;;
17826;SDS011;9038;48.208;16.308;2023-12-04T06:06:09;25.27;;;15.07;;
17826;SDS011;9038;48.208;16.308;2023-12-04T06:08:10;28.20;;;15.23;;
17826;SDS011;9038;48.208;16.308;2023-12-04T06:10:12;22.67;;;15.17;;
17826;SDS011;9038;48.208;16.308;2023-12-04T06:12:14;27.53;;;16.87;;
17826;SDS011;9038;48.208;16.308;2023-12-04T06:14:16;26.80;;;15.63;;
17826;SDS011;9038;48.208;16.308;2023-12-04T06:16:16;26.83;;;14.93;;
17826;SDS011;9038;48.208;16.308;2023-12-04T06:18:18;23.60;;;15.47;;
17826;SDS011;9038;48.208;16.308;2023-12-04T06:20:21;23.93;;;15.27;;
17826;SDS011;9038;48.208;16.308;2023-12-04T06:22:22;26.30;;;15.97;;
17826;SDS011;9038;48.208;16.308;2023-12-04T06:24:25;22.73;;;14.57;;
17826;SDS011;9038;48.208;16.308;2023-12-04T06:26:27;26.90;;;14.20;;
17826;SDS011;9038;48.208;16.308;2023-12-04T06:28:32;22.40;;;14.13;;
17826;SDS011;9038;48.208;16.308;2023-12-04T06:30:34;25.63;;;14.43;;
17826;SDS011;9038;48.208;16.308;2023-12-04T06:32:36;25.30;;;14.17;;
17826;SDS011;9038;48.208;16.308;2023-12-04T06:34:39;24.33;;;14.47;;
17826;SDS011;9038;48.208;16.308;2023-12-04T06:36:41;23.00;;;14.10;;
17826;SDS011;9038;48.208;16.308;2023-12-04T06:38:43;25.27;;;14.80;;
17826;SDS011;9038;48.208;16.308;2023-12-04T06:40:53;22.70;;;13.73;;
17826;SDS011;9038;48.208;16.308;2023-12-04T06:42:55;26.37;;;14.67;;
17826;SDS011;9038;48.208;16.308;2023-12-04T06:44:59;28.47;;;16.67;;
17826;SDS011;9038;48.208;16.308;2023-12-04T06:47:02;27.50;;;16.57;;
17826;SDS011;9038;48.208;16.308;2023-12-04T06:49:05;25.33;;;15.20;;
17826;SDS011;9038;48.208;16.308;2023-12-04T06:51:07;26.30;;;15.93;;
17826;SDS011;9038;48.208;16.308;2023-12-04T06:53:08;25.80;;;15.43;;
17826;SDS011;9038;48.208;16.308;2023-12-04T06:55:10;26.67;;;16.20;;
17826;SDS011;9038;48.208;16.308;2023-12-04T06:57:13;48.27;;;17.97;;
17826;SDS011;9038;48.208;16.308;2023-12-04T06:59:14;25.87;;;15.77;;
17826;SDS011;9038;48.208;16.308;2023-12-04T07:01:17;23.90;;;14.53;;
17826;SDS011;9038;48.208;16.308;2023-12-04T07:03:19;23.53;;;13.90;;
17826;SDS011;9038;48.208;16.308;2023-12-04T07:05:20;27.03;;;15.10;;
17826;SDS011;9038;48.208;16.308;2023-12-04T07:07:22;25.57;;;14.83;;
17826;SDS011;9038;48.208;16.308;2023-12-04T07:09:23;29.83;;;16.30;;
17826;SDS011;9038;48.208;16.308;2023-12-04T07:11:25;21.63;;;14.43;;
17826;SDS011;9038;48.208;16.308;2023-12-04T07:13:27;24.70;;;15.33;;
17826;SDS011;9038;48.208;16.308;2023-12-04T07:15:29;23.83;;;14.40;;
17826;SDS011;9038;48.208;16.308;2023-12-04T07:17:32;27.60;;;15.03;;
17826;SDS011;9038;48.208;16.308;2023-12-04T07:19:34;27.53;;;15.50;;
17826;SDS011;9038;48.208;16.308;2023-12-04T07:21:36;26.30;;;14.37;;
17826;SDS011;9038;48.208;16.308;2023-12-04T07:23:38;24.53;;;14.87;;
17826;SDS011;9038;48.208;16.308;2023-12-04T07:25:40;25.83;;;15.10;;
17826;SDS011;9038;48.208;16.308;2023-12-04T07:27:42;23.90;;;14.37;;
17826;SDS011;9038;48.208;16.308;2023-12-04T07:29:44;16.47;;;10.10;;
17826;SDS011;9038;48.208;16.308;2023-12-04T07:31:46;18.33;;;10.67;;
17826;SDS011;9038;48.208;16.308;2023-12-04T07:33:49;16.83;;;10.57;;
17826;SDS011;9038;48.208;16.308;2023-12-04T07:35:51;15.53;;;10.50;;
17826;SDS011;9038;48.208;16.308;2023-12-04T07:37:55;13.93;;;9.63;;
17826;SDS011;9038;48.208;16.308;2023-12-04T07:39:57;15.97;;;10.63;;
17826;SDS011;9038;48.208;16.308;2023-12-04T07:41:58;15.70;;;10.90;;
17826;SDS011;9038;48.208;16.308;2023-12-04T07:44:07;15.80;;;10.37;;
17826;SDS011;9038;48.208;16.308;2023-12-04T07:46:09;15.97;;;10.63;;
17826;SDS011;9038;48.208;16.308;2023-12-04T07:48:10;18.43;;;10.37;;
17826;SDS011;9038;48.208;16.308;2023-12-04T07:50:14;17.87;;;10.70;;
17826;SDS011;9038;48.208;16.308;2023-12-04T07:52:16;18.70;;;11.17;;
17826;SDS011;9038;48.208;16.308;2023-12-04T07:54:19;15.50;;;10.47;;
17826;SDS011;9038;48.208;16.308;2023-12-04T07:56:19;20.20;;;12.07;;
17826;SDS011;9038;48.208;16.308;2023-12-04T07:58:21;17.57;;;11.50;;
17826;SDS011;9038;48.208;16.308;2023-12-04T08:00:24;17.83;;;11.43;;
17826;SDS011;9038;48.208;16.308;2023-12-04T08:02:26;19.40;;;11.13;;
17826;SDS011;9038;48.208;16.308;2023-12-04T08:04:29;18.43;;;10.97;;
17826;SDS011;9038;48.208;16.308;2023-12-04T08:06:34;22.37;;;11.03;;
17826;SDS011;9038;48.208;16.308;2023-12-04T08:08:37;15.90;;;10.67;;
17826;SDS011;9038;48.208;16.308;2023-12-04T08:10:40;17.17;;;11.20;;
17826;SDS011;9038;48.208;16.308;2023-12-04T08:12:44;18.60;;;10.83;;
17826;SDS011;9038;48.208;16.308;2023-12-04T08:14:47;19.87;;;11.43;;
17826;SDS011;9038;48.208;16.308;2023-12-04T08:16:49;18.27;;;10.63;;
17826;SDS011;9038;48.208;16.308;2023-12-04T08:18:52;22.93;;;14.40;;
17826;SDS011;9038;48.208;16.308;2023-12-04T08:20:56;18.03;;;10.93;;
17826;SDS011;9038;48.208;16.308;2023-12-04T08:23:02;18.30;;;11.43;;
17826;SDS011;9038;48.208;16.308;2023-12-04T08:25:05;19.00;;;11.43;;
17826;SDS011;9038;48.208;16.308;2023-12-04T08:27:07;17.40;;;11.40;;
17826;SDS011;9038;48.208;16.308;2023-12-04T08:29:09;18.70;;;12.03;;
17826;SDS011;9038;48.208;16.308;2023-12-04T08:31:11;17.60;;;11.47;;
17826;SDS011;9038;48.208;16.308;2023-12-04T08:33:13;20.07;;;11.77;;
17826;SDS011;9038;48.208;16.308;2023-12-04T08:35:14;15.97;;;11.33;;
17826;SDS011;9038;48.208;16.308;2023-12-04T08:37:18;18.83;;;11.63;;
17826;SDS011;9038;48.208;16.308;2023-12-04T08:39:21;16.90;;;11.17;;
17826;SDS011;9038;48.208;16.308;2023-12-04T08:41:23;17.27;;;11.07;;
17826;SDS011;9038;48.208;16.308;2023-12-04T08:43:25;17.93;;;11.60;;
17826;SDS011;9038;48.208;16.308;2023-12-04T08:45:29;19.33;;;12.17;;
17826;SDS011;9038;48.208;16.308;2023-12-04T08:47:31;18.07;;;11.40;;
17826;SDS011;9038;48.208;16.308;2023-12-04T08:49:32;20.73;;;12.23;;
17826;SDS011;9038;48.208;16.308;2023-12-04T08:51:35;18.03;;;11.33;;
17826;SDS011;9038;48.208;16.308;2023-12-04T08:53:37;16.57;;;11.17;;
17826;SDS011;9038;48.208;16.308;2023-12-04T08:55:40;19.33;;;11.20;;
17826;SDS011;9038;48.208;16.308;2023-12-04T08:57:42;19.07;;;11.73;;
17826;SDS011;9038;48.208;16.308;2023-12-04T08:59:44;18.50;;;12.40;;
17826;SDS011;9038;48.208;16.308;2023-12-04T09:01:46;17.23;;;11.97;;
17826;SDS011;9038;48.208;16.308;2023-12-04T09:03:48;16.57;;;11.23;;
17826;SDS011;9038;48.208;16.308;2023-12-04T09:05:50;16.13;;;11.27;;
17826;SDS011;9038;48.208;16.308;2023-12-04T09:07:51;15.13;;;11.63;;
17826;SDS011;9038;48.208;16.308;2023-12-04T09:09:53;16.63;;;11.33;;
17826;SDS011;9038;48.208;16.308;2023-12-04T09:11:55;21.30;;;11.87;;
17826;SDS011;9038;48.208;16.308;2023-12-04T09:13:57;20.20;;;12.90;;
17826;SDS011;9038;48.208;16.308;2023-12-04T09:15:59;19.30;;;12.60;;
17826;SDS011;9038;48.208;16.308;2023-12-04T09:18:00;25.93;;;14.27;;
17826;SDS011;9038;48.208;16.308;2023-12-04T09:20:02;17.80;;;11.80;;
17826;SDS011;9038;48.208;16.308;2023-12-04T09:22:05;22.03;;;12.13;;
17826;SDS011;9038;48.208;16.308;2023-12-04T09:24:13;16.30;;;11.70;;
17826;SDS011;9038;48.208;16.308;2023-12-04T09:26:15;19.13;;;12.33;;
17826;SDS011;9038;48.208;16.308;2023-12-04T09:28:18;19.97;;;12.03;;
17826;SDS011;9038;48.208;16.308;2023-12-04T09:30:20;19.07;;;11.53;;
17826;SDS011;9038;48.208;16.308;2023-12-04T09:32:22;17.30;;;11.27;;
17826;SDS011;9038;48.208;16.308;2023-12-04T09:34:24;16.27;;;11.47;;
17826;SDS011;9038;48.208;16.308;2023-12-04T09:36:26;19.40;;;12.50;;
17826;SDS011;9038;48.208;16.308;2023-12-04T09:38:29;16.37;;;11.33;;
17826;SDS011;9038;48.208;16.308;2023-12-04T09:40:31;19.77;;;12.00;;
17826;SDS011;9038;48.208;16.308;2023-12-04T09:42:33;20.10;;;12.27;;
17826;SDS011;9038;48.208;16.308;2023-12-04T09:44:36;15.80;;;10.73;;
17826;SDS011;9038;48.208;16.308;2023-12-04T09:46:39;18.60;;;11.60;;
17826;SDS011;9038;48.208;16.308;2023-12-04T09:48:41;22.33;;;11.73;;
17826;SDS011;9038;48.208;16.308;2023-12-04T09:50:45;16.70;;;11.90;;
17826;SDS011;9038;48.208;16.308;2023-12-04T09:52:47;21.10;;;11.80;;
17826;SDS011;9038;48.208;16.308;2023-12-04T09:54:50;17.80;;;11.60;;
17826;SDS011;9038;48.208;16.308;2023-12-04T09:56:52;17.90;;;11.87;;
17826;SDS011;9038;48.208;16.308;2023-12-04T09:58:58;18.57;;;11.77;;
17826;SDS011;9038;48.208;16.308;2023-12-04T10:01:02;14.40;;;10.97;;
17826;SDS011;9038;48.208;16.308;2023-12-04T10:03:06;19.47;;;12.23;;
17826;SDS011;9038;48.208;16.308;2023-12-04T10:05:08;16.07;;;11.67;;
17826;SDS011;9038;48.208;16.308;2023-12-04T10:07:10;17.07;;;11.63;;
17826;SDS011;9038;48.208;16.308;2023-12-04T10:09:11;17.17;;;11.17;;
17826;SDS011;9038;48.208;16.308;2023-12-04T10:11:13;15.17;;;10.73;;
17826;SDS011;9038;48.208;16.308;2023-12-04T10:13:15;16.60;;;10.47;;
17826;SDS011;9038;48.208;16.308;2023-12-04T10:15:17;15.97;;;10.73;;
17826;SDS011;9038;48.208;16.308;2023-12-04T10:17:20;18.03;;;11.37;;
17826;SDS011;9038;48.208;16.308;2023-12-04T10:19:23;18.53;;;11.73;;
17826;SDS011;9038;48.208;16.308;2023-12-04T10:21:31;22.03;;;11.83;;
17826;SDS011;9038;48.208;16.308;2023-12-04T10:23:37;17.03;;;10.87;;
17826;SDS011;9038;48.208;16.308;2023-12-04T10:25:39;14.97;;;10.23;;
17826;SDS011;9038;48.208;16.308;2023-12-04T10:27:42;16.67;;;10.63;;
17826;SDS011;9038;48.208;16.308;2023-12-04T10:29:44;18.13;;;10.87;;
17826;SDS011;9038;48.208;16.308;2023-12-04T10:31:47;14.23;;;10.40;;
17826;SDS011;9038;48.208;16.308;2023-12-04T10:33:51;17.03;;;10.33;;
17826;SDS011;9038;48.208;16.308;2023-12-04T10:35:54;16.57;;;10.67;;
17826;SDS011;9038;48.208;16.308;2023-12-04T10:37:57;14.73;;;10.67;;
17826;SDS011;9038;48.208;16.308;2023-12-04T10:39:59;13.43;;;10.33;;
17826;SDS011;9038;48.208;16.308;2023-12-04T10:42:01;16.20;;;10.13;;
17826;SDS011;9038;48.208;16.308;2023-12-04T10:44:03;13.60;;;10.43;;
17826;SDS011;9038;48.208;16.308;2023-12-04T10:46:04;14.90;;;10.50;;
17826;SDS011;9038;48.208;16.308;2023-12-04T10:48:07;13.70;;;9.90;;
17826;SDS011;9038;48.208;16.308;2023-12-04T10:50:11;16.23;;;9.77;;
17826;SDS011;9038;48.208;16.308;2023-12-04T10:52:13;14.97;;;10.13;;
17826;SDS011;9038;48.208;16.308;2023-12-04T10:54:15;17.03;;;9.97;;
17826;SDS011;9038;48.208;16.308;2023-12-04T10:56:27;20.07;;;10.47;;
17826;SDS011;9038;48.208;16.308;2023-12-04T10:58:34;15.87;;;9.30;;
17826;SDS011;9038;48.208;16.308;2023-12-04T11:00:37;17.30;;;10.07;;
17826;SDS011;9038;48.208;16.308;2023-12-04T11:02:41;15.40;;;10.23;;
17826;SDS011;9038;48.208;16.308;2023-12-04T11:04:47;13.50;;;10.30;;
17826;SDS011;9038;48.208;16.308;2023-12-04T11:06:53;21.17;;;10.83;;
17826;SDS011;9038;48.208;16.308;2023-12-04T11:08:56;15.90;;;11.07;;
17826;SDS011;9038;48.208;16.308;2023-12-04T11:11:01;18.57;;;10.53;;
17826;SDS011;9038;48.208;16.308;2023-12-04T11:13:06;17.07;;;10.47;;
17826;SDS011;9038;48.208;16.308;2023-12-04T11:15:07;14.03;;;9.77;;
17826;SDS011;9038;48.208;16.308;2023-12-04T11:17:12;14.50;;;10.70;;
17826;SDS011;9038;48.208;16.308;2023-12-04T11:19:18;16.27;;;10.03;;
17826;SDS011;9038;48.208;16.308;2023-12-04T11:21:24;15.33;;;10.37;;
17826;SDS011;9038;48.208;16.308;2023-12-04T11:23:29;12.90;;;9.87;;
17826;SDS011;9038;48.208;16.308;2023-12-04T11:25:32;15.50;;;10.40;;
17826;SDS011;9038;48.208;16.308;2023-12-04T11:27:36;12.77;;;9.67;;
17826;SDS011;9038;48.208;16.308;2023-12-04T11:29:37;12.97;;;9.33;;
17826;SDS011;9038;48.208;16.308;2023-12-04T11:31:40;14.13;;;9.70;;
17826;SDS011;9038;48.208;16.308;2023-12-04T11:33:42;13.60;;;10.03;;
17826;SDS011;9038;48.208;16.308;2023-12-04T11:35:44;13.83;;;9.00;;
17826;SDS011;9038;48.208;16.308;2023-12-04T11:37:46;15.47;;;9.47;;
17826;SDS011;9038;48.208;16.308;2023-12-04T11:39:51;12.97;;;9.47;;
17826;SDS011;9038;48.208;16.308;2023-12-04T11:41:56;12.90;;;9.00;;
17826;SDS011;9038;48.208;16.308;2023-12-04T11:44:00;14.67;;;11.00;;
17826;SDS011;9038;48.208;16.308;2023-12-04T11:46:08;12.83;;;8.80;;
17826;SDS011;9038;48.208;16.308;2023-12-04T11:48:10;12.33;;;8.63;;
17826;SDS011;9038;48.208;16.308;2023-12-04T11:50:12;12.80;;;8.33;;
17826;SDS011;9038;48.208;16.308;2023-12-04T11:52:14;10.90;;;8.50;;
17826;SDS011;9038;48.208;16.308;2023-12-04T11:54:17;12.07;;;8.37;;
17826;SDS011;9038;48.208;16.308;2023-12-04T11:56:20;13.00;;;7.70;;
17826;SDS011;9038;48.208;16.308;2023-12-04T11:58:22;14.73;;;7.60;;
17826;SDS011;9038;48.208;16.308;2023-12-04T12:00:24;11.60;;;7.20;;
17826;SDS011;9038;48.208;16.308;2023-12-04T12:02:26;10.93;;;7.60;;